Time;durP1;ratioP1;P1;durP2;ratioP2;P2;SDS_P1;SDS_P2;PMS_P1;PMS_P2;Temp;Humidity;BMP_temperature;BMP_pressure;BME280_temperature;BME280_humidity;BME280_pressure;Samples;Min_cycle;Max_cycle;Signal;HPM_P1;HPM_P2
2024/03/23 00:05:25;;;;;;;15.07;6.68;;;7.20;99.90;;;;;;12506507;28;20464;-85
2024/03/23 00:11:27;;;;;;;20.80;7.45;;;7.20;99.90;;;;;;12498348;28;20065;-85
2024/03/23 00:17:29;;;;;;;19.85;7.80;;;7.10;99.90;;;;;;12511998;28;20057;-84
2024/03/23 00:23:31;;;;;;;20.70;7.93;;;7.10;99.90;;;;;;12480632;28;20409;-85
2024/03/23 00:29:32;;;;;;;14.10;7.72;;;7.00;99.90;;;;;;12495596;28;20563;-85
2024/03/23 00:35:35;;;;;;;21.35;7.70;;;7.00;99.90;;;;;;12497349;28;20053;-86
2024/03/23 00:41:36;;;;;;;15.50;6.70;;;7.00;99.90;;;;;;12526987;28;20543;-86
2024/03/23 00:47:39;;;;;;;18.38;6.38;;;7.00;99.90;;;;;;12492017;28;20053;-87
2024/03/23 00:53:40;;;;;;;13.20;6.32;;;7.00;99.90;;;;;;12452953;28;20064;-86
2024/03/23 00:59:41;;;;;;;17.38;6.22;;;7.00;99.90;;;;;;12513654;28;20053;-86
2024/03/23 01:05:42;;;;;;;14.68;6.03;;;6.90;99.90;;;;;;12518169;28;20136;-85
2024/03/23 01:11:43;;;;;;;16.55;6.53;;;7.10;99.90;;;;;;12519306;28;20110;-85
2024/03/23 01:17:44;;;;;;;12.57;5.05;;;7.00;99.90;;;;;;12499813;28;20053;-84
2024/03/23 01:23:45;;;;;;;17.83;5.90;;;6.80;99.90;;;;;;12516683;28;20045;-85
2024/03/23 01:29:46;;;;;;;18.42;5.45;;;6.80;99.90;;;;;;12495125;28;20061;-85
2024/03/23 01:35:47;;;;;;;16.15;5.35;;;6.90;99.90;;;;;;12517396;28;20570;-84
2024/03/23 01:41:48;;;;;;;13.77;5.63;;;6.90;99.90;;;;;;12501479;28;20121;-84
2024/03/23 01:47:52;;;;;;;16.17;5.25;;;6.80;99.90;;;;;;12507036;28;20124;-86
2024/03/23 01:53:54;;;;;;;14.82;5.82;;;6.80;99.90;;;;;;12496796;28;20103;-80
2024/03/23 01:59:55;;;;;;;12.75;5.60;;;6.80;99.90;;;;;;12505551;28;20052;-82
2024/03/23 02:05:56;;;;;;;12.57;6.00;;;6.70;99.90;;;;;;12506278;28;20056;-84
2024/03/23 02:11:58;;;;;;;13.68;5.15;;;6.60;99.90;;;;;;12502583;28;20053;-83
2024/03/23 02:17:58;;;;;;;10.75;5.03;;;6.60;99.90;;;;;;12511905;28;20080;-83
2024/03/23 02:24:00;;;;;;;17.38;5.55;;;6.50;99.90;;;;;;12508246;28;20048;-82
2024/03/23 02:30:01;;;;;;;13.60;5.40;;;6.50;99.90;;;;;;12511905;28;20048;-82
2024/03/23 02:36:02;;;;;;;11.50;5.30;;;6.40;99.90;;;;;;12498882;28;20079;-82
2024/03/23 02:42:03;;;;;;;11.10;4.50;;;6.30;99.90;;;;;;12530545;28;20045;-82
2024/03/23 02:48:05;;;;;;;9.63;4.00;;;6.30;99.90;;;;;;12496182;28;20122;-82
2024/03/23 02:54:06;;;;;;;11.25;4.45;;;6.20;99.90;;;;;;12501984;28;20815;-83
2024/03/23 03:00:07;;;;;;;9.98;4.28;;;6.30;99.90;;;;;;12509023;28;20061;-82
2024/03/23 03:06:08;;;;;;;11.30;3.63;;;6.30;99.90;;;;;;12505471;28;20536;-83
2024/03/23 03:12:09;;;;;;;8.35;3.40;;;6.20;99.90;;;;;;12523031;28;20056;-82
2024/03/23 03:18:10;;;;;;;9.38;4.10;;;6.20;99.90;;;;;;12513628;28;20540;-80
2024/03/23 03:24:11;;;;;;;6.72;3.30;;;6.30;99.90;;;;;;12509340;28;20136;-80
2024/03/23 03:30:12;;;;;;;8.07;2.80;;;6.30;99.90;;;;;;12507518;28;20045;-79
2024/03/23 03:36:13;;;;;;;8.50;3.10;;;6.30;99.90;;;;;;12491655;28;20114;-82
2024/03/23 03:42:14;;;;;;;8.00;2.72;;;6.20;99.90;;;;;;12529503;28;20072;-81
2024/03/23 03:48:15;;;;;;;9.68;3.55;;;6.20;99.90;;;;;;12531145;28;20057;-82
2024/03/23 03:54:16;;;;;;;8.65;2.63;;;6.20;99.90;;;;;;12511399;28;20056;-81
2024/03/23 04:00:17;;;;;;;7.78;3.10;;;6.30;99.90;;;;;;12505124;28;20099;-81
2024/03/23 04:06:19;;;;;;;9.55;3.78;;;6.40;99.90;;;;;;12521220;28;20497;-81
2024/03/23 04:12:20;;;;;;;11.63;3.63;;;6.20;99.90;;;;;;12508224;28;20056;-81
2024/03/23 04:18:21;;;;;;;7.03;3.50;;;6.20;99.90;;;;;;12515965;28;20053;-81
2024/03/23 04:24:22;;;;;;;12.60;4.10;;;6.20;99.90;;;;;;12492316;28;20050;-82
2024/03/23 04:30:25;;;;;;;8.40;3.70;;;6.10;99.90;;;;;;12505060;28;20057;-80
2024/03/23 04:36:25;;;;;;;10.07;3.95;;;6.10;99.90;;;;;;12507175;28;20512;-78
2024/03/23 04:42:27;;;;;;;8.32;3.75;;;6.30;99.90;;;;;;12517099;28;20131;-81
2024/03/23 04:48:28;;;;;;;7.30;3.65;;;6.40;99.90;;;;;;12503301;28;20041;-81
2024/03/23 04:54:29;;;;;;;6.55;3.60;;;6.40;99.90;;;;;;12516571;28;20061;-80
2024/03/23 05:00:30;;;;;;;7.65;3.70;;;6.50;99.90;;;;;;12516038;28;20056;-80
2024/03/23 05:06:31;;;;;;;9.05;4.20;;;6.50;99.90;;;;;;12506543;28;20446;-81
2024/03/23 05:12:32;;;;;;;12.75;4.20;;;6.10;99.90;;;;;;12522405;28;20088;-82
2024/03/23 05:18:33;;;;;;;9.57;3.75;;;6.20;99.90;;;;;;12504978;28;20410;-81
2024/03/23 05:24:37;;;;;;;8.55;4.57;;;6.10;99.90;;;;;;12503525;28;20094;-82
2024/03/23 05:30:38;;;;;;;7.40;3.63;;;5.90;99.90;;;;;;12519196;28;20060;-82
2024/03/23 05:36:39;;;;;;;9.05;3.40;;;5.90;99.90;;;;;;12488257;28;20060;-81
2024/03/23 05:42:40;;;;;;;10.52;4.20;;;5.90;99.90;;;;;;12504707;28;20370;-78
2024/03/23 05:48:41;;;;;;;12.02;4.15;;;5.90;99.90;;;;;;12524783;28;20098;-79
2024/03/23 05:54:42;;;;;;;9.13;3.97;;;5.90;99.90;;;;;;12503634;28;20061;-81
2024/03/23 06:00:44;;;;;;;13.45;4.68;;;5.90;99.90;;;;;;12504103;28;20061;-82
2024/03/23 06:06:45;;;;;;;17.38;5.25;;;5.80;99.90;;;;;;12520896;28;20053;-81
2024/03/23 06:12:51;;;;;;;13.32;5.18;;;5.90;99.90;;;;;;12513704;28;20060;-81
2024/03/23 06:18:53;;;;;;;10.73;4.97;;;6.00;99.90;;;;;;12518058;28;20056;-81
2024/03/23 06:24:54;;;;;;;13.25;4.80;;;6.10;99.90;;;;;;12509881;28;20049;-80
2024/03/23 06:30:54;;;;;;;11.25;5.30;;;6.30;99.90;;;;;;12509119;28;20063;-80
2024/03/23 06:36:55;;;;;;;11.25;4.88;;;6.30;99.90;;;;;;12510242;28;20298;-81
2024/03/23 06:42:56;;;;;;;13.63;5.20;;;6.20;99.90;;;;;;12519019;28;20131;-82
2024/03/23 06:48:57;;;;;;;10.40;5.05;;;6.30;99.90;;;;;;12508579;28;20045;-81
2024/03/23 06:55:04;;;;;;;15.93;4.90;;;6.50;99.90;;;;;;12505526;28;20127;-84
2024/03/23 07:01:08;;;;;;;14.88;5.35;;;6.60;99.90;;;;;;12498202;28;20061;-84
2024/03/23 07:07:09;;;;;;;16.03;5.60;;;6.70;99.90;;;;;;12493355;28;20075;-83
2024/03/23 07:13:10;;;;;;;24.63;6.15;;;6.60;99.90;;;;;;12514118;28;20063;-82
2024/03/23 07:19:11;;;;;;;15.25;6.07;;;6.60;99.90;;;;;;12531935;28;20086;-81
2024/03/23 07:25:11;;;;;;;15.07;6.80;;;6.50;99.90;;;;;;12535689;28;20116;-82
2024/03/23 07:31:16;;;;;;;18.63;7.05;;;6.60;99.90;;;;;;12525483;28;20049;-80
2024/03/23 07:37:17;;;;;;;19.58;8.52;;;6.50;99.90;;;;;;12533405;28;20505;-82
2024/03/23 07:43:18;;;;;;;18.98;7.15;;;6.60;99.90;;;;;;12540648;28;20103;-80
2024/03/23 07:49:19;;;;;;;35.25;8.50;;;6.80;99.90;;;;;;12502918;28;20053;-81
2024/03/23 07:55:21;;;;;;;23.00;7.53;;;7.00;99.90;;;;;;12533830;28;20148;-81
2024/03/23 08:01:22;;;;;;;17.77;6.95;;;7.10;99.90;;;;;;12529305;28;20068;-80
2024/03/23 08:07:23;;;;;;;16.08;6.80;;;7.20;99.90;;;;;;12503964;28;20158;-81
2024/03/23 08:13:24;;;;;;;17.75;6.05;;;7.20;99.90;;;;;;12517112;28;20398;-81
2024/03/23 08:19:25;;;;;;;17.63;5.82;;;7.20;99.90;;;;;;12527007;28;20049;-78
2024/03/23 08:25:25;;;;;;;17.42;5.38;;;7.20;99.90;;;;;;12533348;28;20053;-83
2024/03/23 08:31:26;;;;;;;19.48;5.20;;;7.40;99.90;;;;;;12504774;28;20056;-79
2024/03/23 08:37:27;;;;;;;18.83;4.68;;;7.90;99.90;;;;;;12512212;28;20049;-79
2024/03/23 08:43:32;;;;;;;10.55;4.60;;;7.80;99.90;;;;;;12528497;28;20500;-80
2024/03/23 08:49:33;;;;;;;17.42;4.93;;;7.50;99.90;;;;;;12504508;28;20057;-78
2024/03/23 08:55:34;;;;;;;12.93;4.63;;;7.50;99.90;;;;;;12519444;28;20057;-77
2024/03/23 09:01:35;;;;;;;14.43;4.50;;;7.30;99.90;;;;;;12512208;28;20065;-77
2024/03/23 09:07:36;;;;;;;11.40;3.30;;;7.30;99.90;;;;;;12518433;28;20056;-78
2024/03/23 09:13:38;;;;;;;13.20;3.60;;;7.60;99.90;;;;;;12513901;28;20057;-78
2024/03/23 09:19:39;;;;;;;12.52;3.47;;;7.90;99.90;;;;;;12540668;28;20053;-76
2024/03/23 09:25:41;;;;;;;16.13;4.00;;;7.80;99.90;;;;;;12545190;28;20088;-79
2024/03/23 09:31:42;;;;;;;12.13;4.05;;;8.00;99.90;;;;;;12516575;28;20048;-83
2024/03/23 09:37:44;;;;;;;8.98;2.90;;;8.00;99.90;;;;;;12526920;28;20053;-79
2024/03/23 09:43:48;;;;;;;9.15;2.75;;;8.60;99.90;;;;;;12533626;28;20052;-81
2024/03/23 09:49:49;;;;;;;7.70;2.60;;;9.00;99.90;;;;;;12529904;28;20049;-84
2024/03/23 09:55:50;;;;;;;8.60;2.80;;;9.20;99.90;;;;;;12536842;28;20052;-82
2024/03/23 10:01:51;;;;;;;11.77;3.47;;;8.80;99.90;;;;;;12530862;28;20152;-81
2024/03/23 10:07:52;;;;;;;9.63;2.88;;;8.60;99.90;;;;;;12501898;28;20038;-82
2024/03/23 10:13:56;;;;;;;9.40;3.03;;;8.40;99.90;;;;;;12513272;28;20064;-84
2024/03/23 10:19:57;;;;;;;7.10;2.58;;;8.10;99.90;;;;;;12506703;28;20091;-81
2024/03/23 10:26:25;;;;;;;10.93;2.70;;;7.90;99.90;;;;;;12482565;28;20057;-84
2024/03/23 10:32:27;;;;;;;9.02;2.45;;;8.30;99.90;;;;;;12499395;28;20052;-85
2024/03/23 10:38:30;;;;;;;7.90;2.90;;;8.80;99.90;;;;;;12495608;28;20072;-79
2024/03/23 10:44:32;;;;;;;6.10;2.17;;;9.10;99.90;;;;;;12488365;28;20053;-78
2024/03/23 10:50:33;;;;;;;7.30;2.78;;;8.80;99.90;;;;;;12494156;28;20124;-82
2024/03/23 10:56:36;;;;;;;7.05;2.65;;;8.50;99.90;;;;;;12518934;28;20048;-83
2024/03/23 11:02:37;;;;;;;8.03;2.57;;;8.40;99.90;;;;;;12531250;28;20057;-85
2024/03/23 11:08:40;;;;;;;4.90;2.42;;;9.10;99.90;;;;;;12472727;28;20053;-84
2024/03/23 11:14:40;;;;;;;2.65;1.30;;;9.50;99.90;;;;;;12491834;28;20046;-85
2024/03/23 11:20:41;;;;;;;3.40;1.30;;;8.60;99.90;;;;;;12474769;28;20057;-83
2024/03/23 11:26:42;;;;;;;4.00;1.40;;;8.30;99.90;;;;;;12462286;28;20053;-86
2024/03/23 11:32:45;;;;;;;3.55;1.20;;;7.90;99.90;;;;;;12495663;28;20494;-84
2024/03/23 11:38:46;;;;;;;3.15;1.42;;;6.70;99.90;;;;;;12503461;28;20651;-81
2024/03/23 11:44:47;;;;;;;5.35;1.33;;;5.90;99.90;;;;;;12472753;28;20053;-81
2024/03/23 11:50:57;;;;;;;2.97;1.08;;;5.90;99.90;;;;;;12520748;28;20033;-80
2024/03/23 11:57:07;;;;;;;5.45;2.03;;;6.10;99.90;;;;;;12497248;28;20029;-81
2024/03/23 12:03:09;;;;;;;7.20;2.03;;;6.40;99.90;;;;;;12533097;28;20158;-81
2024/03/23 12:09:10;;;;;;;3.47;1.40;;;7.40;99.90;;;;;;12542243;28;20057;-81
2024/03/23 12:15:12;;;;;;;4.05;2.00;;;8.10;99.90;;;;;;12511966;28;20056;-81
2024/03/23 12:21:13;;;;;;;6.53;1.80;;;7.70;99.90;;;;;;12522378;28;20044;-82
2024/03/23 12:27:14;;;;;;;3.63;1.30;;;7.50;99.90;;;;;;12574726;28;20065;-81
2024/03/23 12:33:15;;;;;;;4.30;1.40;;;7.60;99.90;;;;;;12514875;28;20110;-80
2024/03/23 12:39:16;;;;;;;2.92;1.48;;;7.50;99.90;;;;;;12510342;28;20142;-81
2024/03/23 12:45:17;;;;;;;3.25;1.33;;;7.30;99.90;;;;;;12521176;28;20045;-81
2024/03/23 12:51:18;;;;;;;2.25;1.40;;;7.50;99.90;;;;;;12520818;28;20091;-78
2024/03/23 12:57:19;;;;;;;4.00;1.40;;;7.30;99.90;;;;;;12540092;28;20041;-79
2024/03/23 13:03:20;;;;;;;5.45;1.50;;;7.30;99.90;;;;;;12580962;28;20063;-78
2024/03/23 13:09:21;;;;;;;2.92;1.70;;;7.70;99.90;;;;;;12562958;28;20097;-80
2024/03/23 13:15:22;;;;;;;5.03;1.80;;;8.20;99.90;;;;;;12544712;28;20057;-79
2024/03/23 13:21:23;;;;;;;3.13;1.92;;;8.50;99.90;;;;;;12528251;28;20497;-79
2024/03/23 13:27:23;;;;;;;3.05;2.75;;;8.10;99.90;;;;;;12521176;28;20045;-79
2024/03/23 13:33:24;;;;;;;3.60;1.50;;;6.40;99.90;;;;;;12516134;28;20056;-79
2024/03/23 13:39:27;;;;;;;2.47;1.10;;;5.00;99.90;;;;;;12535641;28;20124;-80
2024/03/23 13:45:28;;;;;;;3.13;0.90;;;4.80;99.90;;;;;;12553567;28;20053;-79
2024/03/23 13:51:30;;;;;;;1.70;0.60;;;4.70;99.90;;;;;;12523121;28;20104;-79
2024/03/23 13:57:31;;;;;;;2.92;0.73;;;4.90;99.90;;;;;;12530133;28;20049;-82
2024/03/23 14:03:32;;;;;;;3.47;0.80;;;5.90;99.90;;;;;;12532113;28;20045;-83
2024/03/23 14:09:33;;;;;;;2.88;1.02;;;6.60;99.90;;;;;;12538592;28;20572;-82
2024/03/23 14:15:36;;;;;;;3.40;1.20;;;7.10;99.90;;;;;;12518265;28;20060;-83
2024/03/23 14:21:38;;;;;;;2.92;1.25;;;7.40;99.90;;;;;;12534304;28;20071;-83
2024/03/23 14:27:38;;;;;;;2.70;1.50;;;7.20;99.90;;;;;;12520313;28;20053;-82
2024/03/23 14:33:50;;;;;;;3.28;1.40;;;7.00;99.90;;;;;;12530227;28;20065;-83
2024/03/23 14:39:51;;;;;;;2.45;1.50;;;7.20;99.90;;;;;;12550504;28;20049;-83
2024/03/23 14:46:15;;;;;;;3.00;1.40;;;6.80;99.90;;;;;;12503374;28;20041;-82
2024/03/23 14:52:17;;;;;;;;;;;6.50;99.90;;;;;;12503565;28;20065;-86
2024/03/23 14:58:17;;;;;;;3.17;1.80;;;6.30;99.90;;;;;;12506837;28;19927;-84
2024/03/23 15:04:19;;;;;;;3.83;1.45;;;6.70;99.90;;;;;;12503361;28;20059;-84
2024/03/23 15:10:20;;;;;;;3.85;1.40;;;7.00;99.90;;;;;;12526488;28;20053;-82
2024/03/23 15:16:21;;;;;;;3.78;1.80;;;7.10;99.90;;;;;;12496536;28;20127;-81
2024/03/23 15:22:22;;;;;;;3.17;1.58;;;6.80;99.90;;;;;;12501459;28;20056;-81
2024/03/23 15:28:37;;;;;;;2.78;1.27;;;6.80;99.90;;;;;;12515367;28;20511;-81
2024/03/23 15:34:38;;;;;;;2.17;1.02;;;6.80;99.90;;;;;;12510485;28;20083;-81
2024/03/23 15:40:39;;;;;;;2.97;1.38;;;6.80;99.90;;;;;;12511179;28;20067;-85
2024/03/23 15:46:40;;;;;;;3.85;1.55;;;6.80;99.90;;;;;;12501900;28;20128;-84
2024/03/23 15:52:41;;;;;;;3.67;1.60;;;7.50;99.90;;;;;;12503278;28;20048;-84
2024/03/23 15:58:42;;;;;;;2.72;2.08;;;7.90;99.90;;;;;;12510563;28;20053;-86
2024/03/23 16:04:45;;;;;;;5.40;3.05;;;7.30;99.90;;;;;;12488391;28;20609;-85
2024/03/23 16:10:46;;;;;;;4.68;2.30;;;6.70;99.90;;;;;;12510221;28;20417;-84
2024/03/23 16:16:47;;;;;;;4.47;1.10;;;6.60;99.90;;;;;;12505859;28;20057;-84
2024/03/23 16:22:47;;;;;;;2.30;1.13;;;6.80;99.90;;;;;;12523216;28;20045;-79
2024/03/23 16:28:48;;;;;;;1.77;1.30;;;6.90;99.90;;;;;;12521004;28;20056;-80
2024/03/23 16:34:49;;;;;;;4.60;1.20;;;6.80;99.90;;;;;;12530125;28;20511;-80
2024/03/23 16:40:58;;;;;;;6.10;1.85;;;6.70;99.90;;;;;;12541284;28;20049;-80
2024/03/23 16:46:59;;;;;;;3.83;1.80;;;6.40;99.90;;;;;;12519476;28;20440;-80
2024/03/23 16:53:00;;;;;;;5.38;1.60;;;6.40;99.90;;;;;;12515677;28;20060;-80
2024/03/23 16:59:01;;;;;;;6.72;1.70;;;6.30;99.90;;;;;;12507727;28;20061;-80
2024/03/23 17:05:02;;;;;;;2.28;1.60;;;6.10;99.90;;;;;;12516849;28;20041;-84
2024/03/23 17:11:06;;;;;;;5.53;5.13;;;6.00;99.90;;;;;;12514801;28;20053;-80
2024/03/23 17:17:07;;;;;;;;;;;5.00;99.90;;;;;;12506731;28;20103;-81
2024/03/23 17:23:11;;;;;;;5.45;4.90;;;4.60;99.90;;;;;;12509837;28;20445;-81
2024/03/23 17:29:11;;;;;;;6.25;3.17;;;4.50;99.90;;;;;;12521550;28;20057;-81
2024/03/23 17:35:13;;;;;;;4.60;3.47;;;4.50;99.90;;;;;;12525715;28;20045;-83
2024/03/23 17:41:14;;;;;;;7.88;3.58;;;4.30;99.90;;;;;;12510989;28;20052;-81
2024/03/23 17:47:15;;;;;;;2.67;1.38;;;4.10;99.90;;;;;;12510637;28;20060;-81
2024/03/23 17:53:16;;;;;;;5.25;1.52;;;4.10;99.90;;;;;;12505595;28;20421;-80
2024/03/23 17:59:16;;;;;;;3.15;1.50;;;4.20;99.90;;;;;;12534481;28;20117;-86
2024/03/23 18:05:21;;;;;;;6.30;2.03;;;4.30;99.90;;;;;;12522635;28;20092;-86
2024/03/23 18:11:22;;;;;;;4.38;1.80;;;4.40;99.90;;;;;;12498977;28;20061;-87
2024/03/23 18:17:23;;;;;;;5.80;2.30;;;4.50;99.90;;;;;;12515153;28;20061;-88
2024/03/23 18:23:24;;;;;;;5.38;1.90;;;4.50;99.90;;;;;;12521591;28;20052;-89
2024/03/23 18:29:25;;;;;;;4.43;2.30;;;4.60;99.90;;;;;;12485806;28;20501;-88
2024/03/23 18:35:26;;;;;;;4.40;1.95;;;4.70;99.90;;;;;;12496668;28;20055;-86
2024/03/23 18:41:28;;;;;;;3.70;2.30;;;4.70;99.90;;;;;;12479268;28;20135;-80
2024/03/23 18:47:29;;;;;;;5.18;2.45;;;4.70;99.90;;;;;;12518536;28;20060;-80
2024/03/23 18:53:30;;;;;;;5.63;2.60;;;4.80;99.90;;;;;;12515661;28;20060;-80
2024/03/23 18:59:31;;;;;;;4.93;2.30;;;4.80;99.90;;;;;;12470953;28;20049;-82
2024/03/23 19:05:32;;;;;;;4.25;2.42;;;4.90;99.90;;;;;;12502444;28;20120;-80
2024/03/23 19:11:33;;;;;;;4.13;2.65;;;4.90;99.90;;;;;;12488777;28;20061;-81
2024/03/23 19:17:34;;;;;;;5.60;2.70;;;4.70;99.90;;;;;;12502251;28;20655;-80
2024/03/23 19:23:35;;;;;;;4.15;2.30;;;4.70;99.90;;;;;;12522543;28;20053;-87
2024/03/23 19:29:36;;;;;;;5.82;2.72;;;4.60;99.90;;;;;;12498353;28;20056;-80
2024/03/23 19:35:37;;;;;;;6.82;2.35;;;4.60;99.90;;;;;;12511928;28;20047;-80
2024/03/23 19:41:38;;;;;;;4.43;2.08;;;4.50;99.90;;;;;;12520613;28;20084;-79
2024/03/23 19:47:39;;;;;;;7.00;2.25;;;4.40;99.90;;;;;;12496010;28;20045;-79
2024/03/23 19:53:40;;;;;;;4.57;2.25;;;4.40;99.90;;;;;;12509645;28;20049;-82
2024/03/23 19:59:42;;;;;;;4.55;1.95;;;4.20;99.90;;;;;;12515791;28;20102;-79
2024/03/23 20:05:44;;;;;;;3.45;1.85;;;4.20;99.90;;;;;;12475188;28;20053;-80
2024/03/23 20:11:45;;;;;;;6.13;1.98;;;4.20;99.90;;;;;;12471970;28;20050;-80
2024/03/23 20:17:48;;;;;;;3.13;1.83;;;4.20;99.90;;;;;;12450483;28;20080;-81
2024/03/23 20:23:50;;;;;;;3.88;1.90;;;4.00;99.90;;;;;;12493662;28;20880;-80
2024/03/23 20:29:52;;;;;;;3.40;1.77;;;4.10;99.90;;;;;;12477126;28;20049;-81
2024/03/23 20:35:53;;;;;;;2.92;1.75;;;4.00;99.90;;;;;;12463438;28;20065;-80
2024/03/23 20:41:54;;;;;;;2.78;1.80;;;4.00;99.90;;;;;;12515156;28;20041;-79
2024/03/23 20:47:55;;;;;;;3.15;1.70;;;4.00;99.90;;;;;;12507110;28;20048;-81
2024/03/23 20:53:56;;;;;;;3.47;1.80;;;4.00;99.90;;;;;;12460653;28;20125;-85
2024/03/23 20:59:57;;;;;;;4.15;2.33;;;3.90;99.90;;;;;;12475591;28;20509;-82
2024/03/23 21:05:58;;;;;;;5.18;2.40;;;4.00;99.90;;;;;;12477736;28;20060;-83
2024/03/23 21:11:59;;;;;;;3.35;2.17;;;4.00;99.90;;;;;;12475625;28;20049;-85
2024/03/23 21:18:01;;;;;;;4.15;2.40;;;3.90;99.90;;;;;;12503024;28;20127;-84
2024/03/23 21:24:04;;;;;;;3.90;2.17;;;3.80;99.90;;;;;;12478577;28;20042;-85
2024/03/23 21:30:06;;;;;;;3.97;2.40;;;3.80;99.90;;;;;;12478015;28;20061;-85
2024/03/23 21:36:07;;;;;;;6.10;2.22;;;3.80;99.90;;;;;;12478793;28;20056;-83
2024/03/23 21:42:08;;;;;;;3.92;2.22;;;3.80;99.90;;;;;;12479923;28;20045;-81
2024/03/23 21:48:09;;;;;;;4.68;2.28;;;3.70;99.90;;;;;;12484964;28;20049;-83
2024/03/23 21:54:10;;;;;;;3.67;2.47;;;3.80;99.90;;;;;;12465510;28;20493;-86
2024/03/23 22:00:11;;;;;;;5.47;3.05;;;3.90;99.90;;;;;;12457477;28;20518;-85
2024/03/23 22:06:12;;;;;;;4.38;3.10;;;3.90;99.90;;;;;;12469387;28;20064;-84
2024/03/23 22:12:13;;;;;;;5.15;3.40;;;3.90;99.90;;;;;;12473182;28;20045;-86
2024/03/23 22:18:14;;;;;;;5.22;3.15;;;3.90;99.90;;;;;;12459011;28;20054;-86
2024/03/23 22:24:15;;;;;;;7.30;3.63;;;3.90;99.90;;;;;;12454845;28;20049;-83
2024/03/23 22:30:16;;;;;;;7.00;3.38;;;3.80;99.90;;;;;;12479034;28;20045;-84
2024/03/23 22:36:17;;;;;;;9.93;4.18;;;3.80;99.90;;;;;;12468908;28;20402;-83
2024/03/23 22:42:18;;;;;;;5.43;3.63;;;3.90;99.90;;;;;;12455587;28;20057;-85
2024/03/23 22:48:18;;;;;;;9.10;3.92;;;3.80;99.90;;;;;;12474695;28;20056;-86
2024/03/23 22:54:19;;;;;;;5.38;3.22;;;3.70;99.90;;;;;;12471827;28;20399;-86
2024/03/23 23:00:22;;;;;;;7.60;4.18;;;3.80;99.90;;;;;;12478237;28;20500;-84
2024/03/23 23:06:23;;;;;;;6.00;4.03;;;3.90;99.90;;;;;;12504574;28;20455;-81
2024/03/23 23:12:24;;;;;;;7.40;4.35;;;3.90;99.90;;;;;;12490753;28;20053;-86
2024/03/23 23:18:25;;;;;;;7.13;4.75;;;3.90;99.90;;;;;;12526060;28;20135;-86
2024/03/23 23:24:26;;;;;;;7.78;4.95;;;3.90;99.90;;;;;;12514069;28;20045;-85
2024/03/23 23:30:26;;;;;;;8.20;4.72;;;3.80;99.90;;;;;;12515080;28;20135;-85
2024/03/23 23:36:27;;;;;;;9.55;5.43;;;3.80;99.90;;;;;;12497064;28;20052;-84
2024/03/23 23:42:28;;;;;;;8.52;5.00;;;3.70;99.90;;;;;;12513645;28;20041;-86
2024/03/23 23:48:29;;;;;;;7.97;4.65;;;3.80;99.90;;;;;;12525636;28;20085;-86
2024/03/23 23:54:30;;;;;;;9.52;5.38;;;3.70;99.90;;;;;;12513222;28;20049;-85
